createdAt,value
2022-11-10T00:00:16.683Z,75.66
2022-11-10T00:02:50.914Z,75.60
2022-11-10T00:05:23.751Z,75.89
2022-11-10T00:08:28.146Z,75.67
2022-11-10T00:11:06.533Z,75.74
2022-11-10T00:14:00.987Z,75.60
2022-11-10T00:16:51.676Z,75.52
2022-11-10T00:19:25.877Z,75.57
2022-11-10T00:21:59.399Z,75.61
2022-11-10T00:24:32.222Z,75.47
2022-11-10T00:27:05.410Z,75.54
2022-11-10T00:29:38.244Z,75.55
2022-11-10T00:32:11.777Z,75.66
2022-11-10T00:34:46.019Z,75.88
2022-11-10T00:37:19.256Z,75.79
2022-11-10T00:39:52.376Z,75.67
2022-11-10T00:42:25.576Z,75.46
2022-11-10T00:44:58.432Z,75.48
2022-11-10T00:47:31.304Z,75.57
2022-11-10T00:50:06.565Z,75.59
2022-11-10T00:52:39.408Z,75.48
2022-11-10T00:55:12.216Z,75.67
2022-11-10T00:57:45.026Z,75.87
2022-11-10T01:00:18.494Z,75.61
2022-11-10T01:02:51.328Z,75.75
2022-11-10T01:05:25.804Z,75.82
2022-11-10T01:07:59.574Z,75.59
2022-11-10T01:10:32.595Z,75.64
2022-11-10T01:13:05.631Z,75.95
2022-11-10T01:15:40.899Z,75.86
2022-11-10T01:18:15.467Z,76.01
2022-11-10T01:20:52.953Z,75.99
2022-11-10T01:23:29.035Z,75.60
2022-11-10T01:26:03.176Z,75.45
2022-11-10T01:28:37.317Z,75.58
2022-11-10T01:31:12.367Z,75.84
2022-11-10T01:33:45.667Z,75.57
2022-11-10T01:36:20.020Z,75.53
2022-11-10T01:38:52.850Z,75.66
2022-11-10T01:41:25.738Z,75.26
2022-11-10T01:44:14.567Z,75.11
2022-11-10T01:46:47.410Z,75.67
2022-11-10T01:49:25.762Z,75.58
2022-11-10T01:52:03.076Z,75.44
2022-11-10T01:54:40.118Z,75.50
2022-11-10T01:57:14.902Z,75.43
2022-11-10T01:59:50.189Z,75.25
2022-11-10T02:02:28.251Z,75.51
2022-11-10T02:05:04.357Z,75.38
2022-11-10T02:07:39.942Z,75.29
2022-11-10T02:10:16.208Z,75.35
2022-11-10T02:12:50.211Z,75.30
2022-11-10T02:15:23.416Z,75.28
2022-11-10T02:17:56.419Z,75.53
2022-11-10T02:20:29.294Z,75.09
2022-11-10T02:23:15.036Z,75.04
2022-11-10T02:25:47.939Z,75.19
2022-11-10T02:28:20.747Z,75.83
2022-11-10T02:30:53.896Z,75.82
2022-11-10T02:33:26.671Z,75.95
2022-11-10T02:35:59.555Z,76.05
2022-11-10T02:38:33.950Z,75.92
2022-11-10T02:41:06.965Z,75.80
2022-11-10T02:43:40.353Z,75.99
2022-11-10T02:46:13.583Z,76.30
2022-11-10T02:48:46.483Z,76.17
2022-11-10T02:51:19.560Z,76.12
2022-11-10T02:53:53.927Z,75.97
2022-11-10T02:56:26.746Z,75.77
2022-11-10T02:58:59.604Z,75.88
2022-11-10T03:01:32.856Z,75.57
2022-11-10T03:04:06.897Z,75.52
2022-11-10T03:06:39.716Z,75.72
2022-11-10T03:09:14.241Z,75.43
2022-11-10T03:11:47.019Z,75.37
2022-11-10T03:14:19.836Z,74.82
2022-11-10T03:16:52.897Z,74.25
2022-11-10T03:19:25.645Z,74.34
2022-11-10T03:21:58.612Z,73.90
2022-11-10T03:24:32.871Z,73.86
2022-11-10T03:27:05.730Z,73.68
2022-11-10T03:29:38.513Z,73.62
2022-11-10T03:32:11.321Z,73.81
2022-11-10T03:34:44.120Z,73.71
2022-11-10T03:37:17.003Z,73.98
2022-11-10T03:39:51.243Z,74.15
2022-11-10T03:42:24.170Z,74.49
2022-11-10T03:44:56.998Z,74.64
2022-11-10T03:47:29.927Z,75.21
2022-11-10T03:50:02.776Z,75.36
2022-11-10T03:52:35.704Z,75.56
2022-11-10T03:55:11.855Z,75.67
2022-11-10T03:57:44.802Z,75.71
2022-11-10T04:00:18.284Z,75.60
2022-11-10T04:02:51.103Z,75.93
2022-11-10T04:05:41.340Z,75.89
2022-11-10T04:08:34.766Z,75.79
2022-11-10T04:11:09.015Z,75.91
2022-11-10T04:13:59.281Z,75.89
2022-11-10T04:16:32.093Z,75.74
2022-11-10T04:19:05.008Z,76.13
2022-11-10T04:21:37.898Z,76.08
2022-11-10T04:24:10.765Z,76.01
2022-11-10T04:26:47.515Z,76.08
2022-11-10T04:29:21.384Z,76.03
2022-11-10T04:31:54.172Z,76.25
2022-11-10T04:34:27.401Z,76.06
2022-11-10T04:37:00.248Z,75.88
2022-11-10T04:39:33.076Z,75.40
2022-11-10T04:42:07.384Z,74.61
2022-11-10T04:44:40.328Z,74.03
2022-11-10T04:47:13.167Z,73.58
2022-11-10T04:49:46.014Z,73.25
2022-11-10T04:52:18.825Z,72.61
2022-11-10T04:54:51.640Z,72.51
2022-11-10T04:57:26.027Z,72.07
2022-11-10T04:59:58.806Z,72.17
2022-11-10T05:02:35.544Z,72.00
2022-11-10T05:05:11.804Z,71.54
2022-11-10T05:07:44.623Z,71.80
2022-11-10T05:10:17.659Z,71.84
2022-11-10T05:12:54.473Z,71.58
2022-11-10T05:15:27.470Z,71.91
2022-11-10T05:18:00.570Z,72.21
2022-11-10T05:20:33.536Z,71.94
2022-11-10T05:23:24.625Z,72.78
2022-11-10T05:25:57.784Z,72.30
2022-11-10T05:28:32.174Z,73.16
2022-11-10T05:31:05.254Z,72.81
2022-11-10T05:33:39.051Z,72.91
2022-11-10T05:36:12.113Z,72.91
2022-11-10T05:38:44.912Z,73.01
2022-11-10T05:41:17.718Z,73.02
2022-11-10T05:43:52.572Z,72.77
2022-11-10T05:46:25.898Z,73.72
2022-11-10T05:48:59.244Z,73.24
2022-11-10T05:51:32.194Z,73.87
2022-11-10T05:54:05.416Z,74.04
2022-11-10T05:56:38.553Z,75.52
2022-11-10T05:59:13.391Z,76.06
2022-11-10T06:01:51.165Z,76.76
2022-11-10T06:04:25.439Z,76.76
2022-11-10T06:06:58.746Z,77.88
2022-11-10T06:09:32.133Z,77.73
2022-11-10T06:12:20.816Z,77.96
2022-11-10T06:14:56.019Z,78.23
2022-11-10T06:17:29.317Z,78.67
2022-11-10T06:20:02.528Z,78.90
2022-11-10T06:22:35.812Z,78.63
2022-11-10T06:25:10.017Z,78.24
2022-11-10T06:27:46.553Z,77.49
2022-11-10T06:30:23.111Z,77.85
2022-11-10T06:32:56.934Z,77.60
2022-11-10T06:35:31.283Z,76.76
2022-11-10T06:38:07.600Z,76.29
2022-11-10T06:40:40.944Z,75.88
2022-11-10T06:43:14.638Z,75.88
2022-11-10T06:45:49.171Z,76.51
2022-11-10T06:48:22.285Z,76.70
2022-11-10T06:50:55.644Z,76.84
2022-11-10T06:53:28.957Z,76.97
2022-11-10T06:56:02.276Z,77.29
2022-11-10T06:58:35.237Z,77.52
2022-11-10T07:01:10.092Z,77.15
2022-11-10T07:04:05.170Z,77.51
2022-11-10T07:06:36.549Z,77.25
2022-11-10T07:09:09.664Z,77.04
2022-11-10T07:11:43.334Z,77.08
2022-11-10T07:14:16.725Z,76.93
2022-11-10T07:16:51.932Z,76.75
2022-11-10T07:19:25.236Z,76.68
2022-11-10T07:21:58.266Z,76.71
2022-11-10T07:24:31.418Z,76.68
2022-11-10T07:27:04.487Z,76.66
2022-11-10T07:29:38.087Z,76.45
2022-11-10T07:32:12.542Z,76.20
2022-11-10T07:34:45.549Z,76.06
2022-11-10T07:37:18.494Z,76.13
2022-11-10T07:39:51.466Z,75.86
2022-11-10T07:42:24.641Z,75.61
2022-11-10T07:44:57.514Z,75.50
2022-11-10T07:47:31.781Z,75.42
2022-11-10T07:50:05.176Z,75.34
2022-11-10T07:52:38.047Z,75.59
2022-11-10T07:55:11.095Z,75.31
2022-11-10T07:57:43.963Z,75.19
2022-11-10T08:00:18.436Z,75.43
2022-11-10T08:02:52.775Z,75.26
2022-11-10T08:05:25.725Z,75.67
2022-11-10T08:08:00.152Z,75.56
2022-11-10T08:10:34.084Z,75.57
2022-11-10T08:13:08.916Z,75.27
2022-11-10T08:15:42.466Z,75.28
2022-11-10T08:18:20.088Z,74.91
2022-11-10T08:20:53.460Z,75.08
2022-11-10T08:23:26.295Z,74.81
2022-11-10T08:25:59.774Z,74.61
2022-11-10T08:28:32.545Z,74.63
2022-11-10T08:31:06.354Z,74.42
2022-11-10T08:33:40.748Z,74.31
2022-11-10T08:36:14.353Z,74.20
2022-11-10T08:38:47.187Z,73.99
2022-11-10T08:41:20.070Z,73.70
2022-11-10T08:43:52.913Z,74.01
2022-11-10T08:46:25.752Z,74.09
2022-11-10T08:49:00.543Z,73.88
2022-11-10T08:51:38.741Z,73.70
2022-11-10T08:54:11.909Z,73.58
2022-11-10T08:56:44.709Z,73.18
2022-11-10T08:59:17.896Z,73.06
2022-11-10T09:01:50.724Z,73.21
2022-11-10T09:04:25.310Z,73.32
2022-11-10T09:06:58.350Z,73.21
2022-11-10T09:09:31.218Z,72.84
2022-11-10T09:12:04.268Z,73.07
2022-11-10T09:14:37.135Z,72.64
2022-11-10T09:17:10.004Z,72.31
2022-11-10T09:19:44.251Z,71.56
2022-11-10T09:22:17.145Z,71.53
2022-11-10T09:24:49.932Z,70.95
2022-11-10T09:27:23.092Z,70.43
2022-11-10T09:29:55.852Z,70.48
2022-11-10T09:32:28.954Z,71.01
2022-11-10T09:35:03.765Z,70.46
2022-11-10T09:37:40.126Z,70.64
2022-11-10T09:40:18.789Z,70.63
2022-11-10T09:42:56.660Z,71.16
2022-11-10T09:45:38.686Z,71.27
2022-11-10T09:48:18.887Z,70.95
2022-11-10T09:50:56.949Z,71.28
2022-11-10T09:53:38.059Z,70.85
2022-11-10T09:56:17.820Z,70.64
2022-11-10T09:58:51.366Z,69.73
2022-11-10T10:01:31.715Z,69.35
2022-11-10T10:04:21.824Z,69.08
2022-11-10T10:07:11.926Z,69.00
2022-11-10T10:09:54.319Z,68.86
2022-11-10T10:12:47.383Z,68.56
2022-11-10T10:15:30.979Z,69.35
2022-11-10T10:18:20.564Z,69.36
2022-11-10T10:21:07.229Z,68.66
2022-11-10T10:26:43.267Z,70.09
2022-11-10T10:29:21.735Z,69.26
2022-11-10T10:31:55.086Z,68.61
2022-11-10T10:34:30.490Z,68.08
2022-11-10T10:37:03.678Z,68.00
2022-11-10T10:39:42.989Z,68.09
2022-11-10T10:42:25.830Z,68.05
2022-11-10T10:45:15.844Z,68.28
2022-11-10T10:47:50.871Z,67.95
2022-11-10T10:50:30.250Z,67.73
2022-11-10T10:53:14.746Z,68.48
2022-11-10T10:56:00.165Z,67.32
2022-11-10T10:58:36.125Z,67.64
2022-11-10T11:01:25.508Z,67.74
2022-11-10T11:03:59.102Z,68.32
2022-11-10T11:06:33.125Z,68.41
2022-11-10T11:09:10.282Z,68.29
2022-11-10T11:11:46.217Z,68.46
2022-11-10T11:14:24.220Z,68.51
2022-11-10T11:16:58.366Z,68.35
2022-11-10T11:19:36.734Z,68.17
2022-11-10T11:22:43.795Z,67.90
2022-11-10T11:25:24.787Z,67.67
2022-11-10T11:28:11.304Z,67.70
2022-11-10T11:30:54.223Z,67.26
2022-11-10T11:33:38.452Z,66.86
2022-11-10T11:36:20.402Z,66.66
2022-11-10T11:39:06.410Z,66.47
2022-11-10T11:41:46.673Z,66.64
2022-11-10T11:44:34.440Z,66.91
2022-11-10T11:47:24.077Z,67.13
2022-11-10T11:50:14.715Z,66.59
2022-11-10T11:52:56.307Z,67.32
2022-11-10T11:55:40.091Z,66.87
2022-11-10T11:58:28.204Z,66.37
2022-11-10T12:01:15.610Z,65.44
2022-11-10T12:04:06.866Z,65.23
2022-11-10T12:06:56.091Z,65.99
2022-11-10T12:09:41.107Z,65.64
2022-11-10T12:12:43.838Z,66.38
2022-11-10T12:15:29.621Z,65.51
2022-11-10T12:18:14.496Z,65.77
2022-11-10T12:21:01.470Z,65.80
2022-11-10T12:23:46.681Z,65.78
2022-11-10T12:26:31.046Z,65.68
2022-11-10T12:29:10.638Z,65.39
2022-11-10T12:31:47.688Z,65.71
2022-11-10T12:34:31.933Z,65.17
2022-11-10T12:37:09.222Z,65.70
2022-11-10T12:39:50.972Z,65.19
2022-11-10T12:42:27.417Z,65.79
2022-11-10T12:45:03.089Z,65.92
2022-11-10T12:47:42.538Z,66.55
2022-11-10T12:50:31.716Z,67.05
2022-11-10T12:53:12.500Z,67.32
2022-11-10T12:55:56.395Z,68.74
2022-11-10T12:58:30.944Z,68.35
2022-11-10T13:01:06.757Z,68.09
2022-11-10T13:03:41.297Z,67.86
2022-11-10T13:06:28.541Z,67.63
2022-11-10T13:09:01.589Z,67.83
2022-11-10T13:11:37.296Z,67.82
2022-11-10T13:14:23.386Z,68.10
2022-11-10T13:16:56.624Z,68.59
2022-11-10T13:19:49.447Z,68.26
2022-11-10T13:22:39.358Z,69.26
2022-11-10T13:25:54.177Z,69.27
2022-11-10T13:29:02.554Z,69.40
2022-11-10T13:31:57.666Z,69.71
2022-11-10T13:34:35.690Z,70.17
2022-11-10T13:37:42.540Z,70.26
2022-11-10T13:40:36.629Z,70.47
2022-11-10T13:43:27.909Z,70.28
2022-11-10T13:46:06.332Z,70.24
2022-11-10T13:48:51.222Z,69.42
2022-11-10T13:51:41.100Z,69.37
2022-11-10T13:54:34.711Z,69.12
2022-11-10T13:57:21.030Z,69.03
2022-11-10T13:59:56.801Z,68.85
2022-11-10T14:02:57.327Z,68.95
2022-11-10T14:06:05.788Z,68.87
2022-11-10T14:08:49.755Z,69.21
2022-11-10T14:11:28.546Z,68.95
2022-11-10T14:14:11.621Z,69.07
2022-11-10T14:16:45.082Z,69.23
2022-11-10T14:19:26.825Z,69.27
2022-11-10T14:22:04.448Z,69.32
2022-11-10T14:24:40.479Z,69.54
2022-11-10T14:27:17.177Z,69.61
2022-11-10T14:30:05.428Z,69.53
2022-11-10T14:32:38.401Z,69.69
2022-11-10T14:35:21.265Z,69.54
2022-11-10T14:37:59.551Z,69.55
2022-11-10T14:40:32.441Z,69.50
2022-11-10T14:43:05.289Z,69.73
2022-11-10T14:45:41.205Z,69.61
2022-11-10T14:48:20.053Z,69.64
2022-11-10T14:50:53.979Z,69.80
2022-11-10T14:53:30.309Z,69.80
2022-11-10T14:56:05.820Z,70.26
2022-11-10T14:58:40.396Z,69.75
2022-11-10T15:01:27.278Z,69.55
2022-11-10T15:04:00.691Z,70.02
2022-11-10T15:06:34.690Z,70.13
2022-11-10T15:09:15.446Z,70.01
2022-11-10T15:11:51.265Z,69.89
2022-11-10T15:14:33.429Z,69.90
2022-11-10T15:17:10.561Z,69.86
2022-11-10T15:19:55.206Z,70.05
2022-11-10T15:22:30.739Z,70.03
2022-11-10T15:25:11.955Z,70.07
2022-11-10T15:27:57.773Z,70.06
2022-11-10T15:30:31.090Z,70.15
2022-11-10T15:33:11.879Z,70.18
2022-11-10T15:35:44.739Z,70.19
2022-11-10T15:38:30.555Z,70.13
2022-11-10T15:41:12.974Z,70.51
2022-11-10T15:43:45.772Z,70.33
2022-11-10T15:46:22.098Z,70.31
2022-11-10T15:48:56.357Z,70.32
2022-11-10T15:51:29.446Z,70.32
2022-11-10T15:54:03.565Z,70.63
2022-11-10T15:56:36.681Z,70.61
2022-11-10T15:59:11.225Z,70.34
2022-11-10T16:01:44.109Z,70.47
2022-11-10T16:04:18.442Z,70.59
2022-11-10T16:06:51.333Z,70.57
2022-11-10T16:09:24.172Z,70.44
2022-11-10T16:11:57.155Z,70.57
2022-11-10T16:14:30.623Z,70.77
2022-11-10T16:17:03.521Z,70.62
2022-11-10T16:19:37.730Z,71.09
2022-11-10T16:22:11.992Z,71.47
2022-11-10T16:24:45.290Z,70.59
2022-11-10T16:27:18.617Z,71.01
2022-11-10T16:29:51.472Z,70.84
2022-11-10T16:32:24.539Z,70.78
2022-11-10T16:34:59.015Z,70.97
2022-11-10T16:37:34.927Z,70.89
2022-11-10T16:40:14.604Z,70.72
2022-11-10T16:42:47.885Z,70.57
2022-11-10T16:45:23.435Z,70.74
2022-11-10T16:47:56.563Z,71.30
2022-11-10T16:50:36.062Z,70.74
2022-11-10T16:53:17.163Z,70.81
2022-11-10T16:55:49.994Z,70.96
2022-11-10T16:58:23.003Z,71.04
2022-11-10T17:00:59.790Z,71.46
2022-11-10T17:03:35.410Z,71.64
2022-11-10T17:06:13.546Z,71.52
2022-11-10T17:08:48.229Z,71.50
2022-11-10T17:11:21.129Z,71.29
2022-11-10T17:13:53.979Z,71.67
2022-11-10T17:16:29.995Z,71.68
2022-11-10T17:19:04.261Z,71.31
2022-11-10T17:21:39.906Z,71.79
2022-11-10T17:24:15.334Z,71.20
2022-11-10T17:26:48.767Z,71.98
2022-11-10T17:29:22.475Z,71.70
2022-11-10T17:31:55.854Z,71.52
2022-11-10T17:34:28.748Z,71.28
2022-11-10T17:37:03.050Z,71.59
2022-11-10T17:39:35.948Z,71.93
2022-11-10T17:42:13.086Z,71.72
2022-11-10T17:44:45.936Z,71.77
2022-11-10T17:47:18.812Z,72.04
2022-11-10T17:49:51.651Z,71.98
2022-11-10T17:52:25.892Z,72.13
2022-11-10T17:54:58.911Z,71.87
2022-11-10T17:57:32.003Z,72.02
2022-11-10T18:00:06.523Z,71.80
2022-11-10T18:02:39.405Z,71.92
2022-11-10T18:05:13.774Z,72.01
2022-11-10T18:07:50.948Z,72.28
2022-11-10T18:10:23.913Z,72.07
2022-11-10T18:12:56.702Z,72.48
2022-11-10T18:15:29.534Z,72.57
2022-11-10T18:18:02.342Z,72.43
2022-11-10T18:20:35.159Z,72.12
2022-11-10T18:23:12.339Z,72.34
2022-11-10T18:25:45.251Z,72.17
2022-11-10T18:28:18.181Z,72.30
2022-11-10T18:30:50.996Z,72.11
2022-11-10T18:33:24.186Z,71.71
2022-11-10T18:35:59.629Z,72.24
2022-11-10T18:38:33.894Z,72.15
2022-11-10T18:41:22.067Z,71.86
2022-11-10T18:43:57.383Z,72.09
2022-11-10T18:46:30.215Z,71.60
2022-11-10T18:49:03.359Z,72.04
2022-11-10T18:51:37.144Z,71.91
2022-11-10T18:54:11.550Z,72.23
2022-11-10T18:56:44.403Z,72.28
2022-11-10T18:59:17.434Z,72.46
2022-11-10T19:01:51.045Z,72.49
2022-11-10T19:04:24.121Z,72.48
2022-11-10T19:06:57.068Z,72.93
2022-11-10T19:09:31.503Z,72.73
2022-11-10T19:12:04.605Z,72.95
2022-11-10T19:14:37.403Z,72.97
2022-11-10T19:17:10.347Z,73.03
2022-11-10T19:19:43.106Z,72.99
2022-11-10T19:22:15.967Z,73.06
2022-11-10T19:25:08.503Z,73.07
2022-11-10T19:27:41.564Z,72.94
2022-11-10T19:30:15.165Z,72.84
2022-11-10T19:32:48.246Z,72.53
2022-11-10T19:35:21.022Z,72.55
2022-11-10T19:37:54.210Z,72.34
2022-11-10T19:40:28.492Z,72.57
2022-11-10T19:43:01.311Z,72.47
2022-11-10T19:45:35.973Z,72.35
2022-11-10T19:48:08.824Z,72.39
2022-11-10T19:50:46.558Z,72.47
2022-11-10T19:53:22.377Z,72.38
2022-11-10T19:56:02.071Z,72.30
2022-11-10T19:58:38.073Z,72.29
2022-11-10T20:01:11.792Z,72.39
2022-11-10T20:03:44.949Z,72.29
2022-11-10T20:06:20.071Z,72.50
2022-11-10T20:08:53.345Z,72.58
2022-11-10T20:11:28.135Z,72.27
2022-11-10T20:14:01.536Z,72.55
2022-11-10T20:16:34.336Z,72.42
2022-11-10T20:19:07.183Z,72.10
2022-11-10T20:21:39.978Z,72.22
2022-11-10T20:24:12.928Z,72.35
2022-11-10T20:26:47.274Z,72.38
2022-11-10T20:29:20.047Z,72.22
2022-11-10T20:31:52.863Z,72.46
2022-11-10T20:34:26.162Z,72.29
2022-11-10T20:36:59.280Z,72.22
2022-11-10T20:39:32.241Z,72.41
2022-11-10T20:42:06.469Z,72.33
2022-11-10T20:44:39.406Z,72.14
2022-11-10T20:47:12.306Z,72.19
2022-11-10T20:49:45.202Z,72.46
2022-11-10T20:52:18.550Z,72.69
2022-11-10T20:54:51.567Z,72.98
2022-11-10T20:57:25.780Z,73.45
2022-11-10T20:59:58.771Z,73.61
2022-11-10T21:02:31.660Z,74.20
2022-11-10T21:05:04.927Z,74.19
2022-11-10T21:07:38.002Z,74.51
2022-11-10T21:10:11.029Z,74.63
2022-11-10T21:12:51.219Z,74.57
2022-11-10T21:15:24.618Z,75.20
2022-11-10T21:17:57.479Z,75.47
2022-11-10T21:20:30.334Z,75.42
2022-11-10T21:23:03.824Z,75.26
2022-11-10T21:25:36.961Z,75.39
2022-11-10T21:28:11.279Z,75.61
2022-11-10T21:30:44.369Z,75.56
2022-11-10T21:33:17.405Z,75.20
2022-11-10T21:35:50.549Z,75.27
2022-11-10T21:38:23.453Z,75.23
2022-11-10T21:40:58.599Z,75.01
2022-11-10T21:43:32.926Z,74.14
2022-11-10T21:46:06.840Z,74.12
2022-11-10T21:48:39.746Z,74.13
2022-11-10T21:51:14.388Z,73.73
2022-11-10T21:53:47.554Z,74.12
2022-11-10T21:56:20.422Z,73.64
2022-11-10T21:58:54.612Z,73.72
2022-11-10T22:01:27.630Z,73.85
2022-11-10T22:04:00.489Z,73.67
2022-11-10T22:06:47.273Z,73.83
2022-11-10T22:09:40.256Z,73.79
2022-11-10T22:12:32.161Z,73.73
2022-11-10T22:15:25.707Z,73.94
2022-11-10T22:18:16.197Z,73.91
2022-11-10T22:20:49.128Z,73.45
2022-11-10T22:23:42.407Z,73.91
2022-11-10T22:26:15.536Z,73.77
2022-11-10T22:28:49.287Z,74.10
2022-11-10T22:31:23.470Z,73.82
2022-11-10T22:33:56.295Z,73.73
2022-11-10T22:36:29.247Z,73.61
2022-11-10T22:39:03.827Z,74.17
2022-11-10T22:41:54.639Z,73.72
2022-11-10T22:44:27.602Z,73.49
2022-11-10T22:47:02.062Z,74.17
2022-11-10T22:49:34.915Z,73.38
2022-11-10T22:52:07.737Z,73.28
2022-11-10T22:54:40.561Z,74.03
2022-11-10T22:57:13.337Z,74.05
2022-11-10T22:59:46.193Z,73.56
2022-11-10T23:02:20.331Z,73.88
2022-11-10T23:04:53.143Z,73.44
2022-11-10T23:07:25.930Z,73.33
2022-11-10T23:09:58.734Z,73.25
2022-11-10T23:12:31.737Z,73.71
2022-11-10T23:15:04.933Z,73.19
2022-11-10T23:17:39.140Z,73.25
2022-11-10T23:20:12.527Z,73.36
2022-11-10T23:22:45.405Z,73.54
2022-11-10T23:25:18.266Z,73.12
2022-11-10T23:27:51.043Z,73.20
2022-11-10T23:30:24.313Z,73.10
2022-11-10T23:32:58.594Z,73.07
2022-11-10T23:35:33.241Z,72.73
2022-11-10T23:38:06.216Z,72.48
2022-11-10T23:40:39.333Z,72.42
2022-11-10T23:43:12.245Z,72.51
2022-11-10T23:46:06.027Z,72.26
2022-11-10T23:48:40.661Z,72.48
2022-11-10T23:51:15.441Z,72.11
2022-11-10T23:53:48.302Z,72.24
2022-11-10T23:56:21.250Z,72.85
2022-11-10T23:58:54.085Z,72.61
